Terminal Aerodrome Forecast
Issued by NWS

Home | Current Version | Previous Version | Text Only | Print | Product List | Glossary On
Versions: 1 2 3 4 5 6 7 8 9 10 11 12 13 14 15 16 17
000
FTUS41 KPBZ 211725
TAFAGC
TAF
KAGC 211725Z 2118/2218 00000KT P6SM SCT025 BKN045
     FM212100 28004KT P6SM BKN110
     FM220800 00000KT 3SM BR SCT150
     FM221000 00000KT 1SM BR SCT110
     FM221400 19004KT P6SM VCTS BKN045CB
     FM221700 21007KT P6SM -SHRA VCTS OVC030CB=

USA.gov is the U.S. government's official web portal to all federal, state and local government web resources and services.